Time;durP1;ratioP1;P1;durP2;ratioP2;P2;SDS_P1;SDS_P2;PMS_P1;PMS_P2;Temp;Humidity;BMP_temperature;BMP_pressure;BME280_temperature;BME280_humidity;BME280_pressure;Samples;Min_cycle;Max_cycle;Signal;HPM_P1;HPM_P2
2022/07/26 00:01:19;;;;;;;4.55;1.95;;;;;;;21.61;81.09;100902.88;5037288;28;20398;-74
2022/07/26 00:03:48;;;;;;;6.28;2.03;;;;;;;21.62;81.11;100898.00;5038579;28;20063;-75
2022/07/26 00:06:14;;;;;;;7.38;2.53;;;;;;;21.62;80.89;100903.63;5036636;28;20194;-76
2022/07/26 00:08:44;;;;;;;8.27;2.25;;;;;;;21.57;81.85;100899.41;5035774;28;20049;-74
2022/07/26 00:11:11;;;;;;;8.18;2.00;;;;;;;21.55;82.00;100899.09;5043693;28;21075;-73
2022/07/26 00:13:38;;;;;;;7.20;2.13;;;;;;;21.48;81.92;100898.63;5036538;28;20084;-74
2022/07/26 00:16:05;;;;;;;5.57;1.85;;;;;;;21.29;84.32;100899.88;5038418;28;20059;-74
2022/07/26 00:18:32;;;;;;;3.80;1.70;;;;;;;21.30;83.93;100890.94;5044455;28;20265;-74
2022/07/26 00:20:58;;;;;;;3.35;1.60;;;;;;;21.19;84.86;100899.03;5037346;28;20045;-74
2022/07/26 00:23:26;;;;;;;8.32;2.40;;;;;;;21.21;84.04;100890.13;5037244;28;20048;-72
2022/07/26 00:25:52;;;;;;;6.50;2.00;;;;;;;21.22;83.68;100897.31;5034287;28;20052;-73
2022/07/26 00:28:19;;;;;;;11.90;2.55;;;;;;;21.13;85.54;100903.69;5032754;28;20056;-72
2022/07/26 00:30:46;;;;;;;5.32;1.38;;;;;;;20.97;86.98;100897.56;5036858;28;20071;-73
2022/07/26 00:33:12;;;;;;;7.18;2.22;;;;;;;21.00;86.74;100905.09;5038955;28;20058;-72
2022/07/26 00:35:39;;;;;;;6.03;2.10;;;;;;;20.98;85.68;100891.47;5041015;28;20063;-74
2022/07/26 00:38:05;;;;;;;10.55;2.42;;;;;;;20.91;87.11;100894.56;5045406;28;20052;-72
2022/07/26 00:40:33;;;;;;;9.02;2.17;;;;;;;20.89;86.55;100887.84;5033494;28;20055;-75
2022/07/26 00:42:59;;;;;;;8.13;1.73;;;;;;;20.75;88.93;100889.19;5034418;28;20090;-74
2022/07/26 00:45:26;;;;;;;5.72;1.92;;;;;;;20.79;88.31;100892.63;5040775;28;20057;-74
2022/07/26 00:47:52;;;;;;;12.48;2.45;;;;;;;20.71;88.79;100894.16;5032162;28;20059;-72
2022/07/26 00:50:19;;;;;;;8.52;1.90;;;;;;;20.67;89.87;100887.91;5036006;28;20052;-75
2022/07/26 00:52:48;;;;;;;9.18;2.38;;;;;;;20.72;88.32;100887.28;5040507;28;20823;-73
2022/07/26 00:55:15;;;;;;;8.55;1.88;;;;;;;20.57;90.56;100891.91;5039051;28;20084;-75
2022/07/26 00:57:43;;;;;;;6.07;1.40;;;;;;;20.55;90.85;100893.63;5032599;28;20057;-74
2022/07/26 01:00:14;;;;;;;7.15;2.08;;;;;;;20.57;91.16;100891.91;5040729;28;20055;-73
2022/07/26 01:02:40;;;;;;;12.68;2.88;;;;;;;20.57;90.09;100888.31;5041921;28;20049;-73
2022/07/26 01:05:07;;;;;;;6.28;2.53;;;;;;;20.47;91.78;100890.31;5040342;28;20134;-74
2022/07/26 01:07:36;;;;;;;10.13;2.85;;;;;;;20.45;91.91;100886.41;5040159;28;20059;-74
2022/07/26 01:10:05;;;;;;;10.52;2.38;;;;;;;20.42;93.09;100890.13;5037449;28;20844;-74
2022/07/26 01:12:32;;;;;;;7.60;2.30;;;;;;;20.32;93.83;100894.91;5029678;28;20051;-74
2022/07/26 01:14:58;;;;;;;7.75;2.63;;;;;;;20.33;93.48;100888.84;5033228;28;20071;-75
2022/07/26 01:17:25;;;;;;;8.73;2.15;;;;;;;20.29;94.24;100888.16;5038252;28;20056;-74
2022/07/26 01:19:51;;;;;;;8.07;2.00;;;;;;;20.21;95.61;100889.69;5040505;28;20053;-75
2022/07/26 01:22:18;;;;;;;13.85;2.30;;;;;;;20.30;93.32;100889.75;5041702;28;20066;-75
2022/07/26 01:24:44;;;;;;;7.97;2.45;;;;;;;20.22;95.76;100893.28;5037761;28;20614;-73
2022/07/26 01:27:11;;;;;;;7.57;2.15;;;;;;;20.28;94.90;100889.41;5040930;28;20081;-76
2022/07/26 01:29:37;;;;;;;9.57;2.00;;;;;;;20.24;95.51;100891.59;5031902;28;20616;-73
2022/07/26 01:32:04;;;;;;;6.93;2.03;;;;;;;20.26;95.71;100889.09;5041801;28;20930;-75
2022/07/26 01:34:31;;;;;;;9.85;2.35;;;;;;;20.31;95.18;100890.53;5038576;28;20595;-75
2022/07/26 01:36:58;;;;;;;6.15;2.42;;;;;;;20.29;95.58;100890.97;5052645;28;20083;-72
2022/07/26 01:39:25;;;;;;;7.57;1.98;;;;;;;20.26;95.70;100885.50;5052101;28;20569;-72
2022/07/26 01:41:53;;;;;;;7.15;2.08;;;;;;;20.39;94.33;100884.16;5064500;28;20158;-75
2022/07/26 01:44:19;;;;;;;10.13;2.95;;;;;;;20.42;94.78;100892.94;5060054;28;20049;-72
2022/07/26 01:46:46;;;;;;;4.55;1.75;;;;;;;20.36;95.62;100895.56;5063426;28;20127;-72
2022/07/26 01:49:12;;;;;;;13.48;3.05;;;;;;;20.43;94.89;100887.63;5053365;28;20148;-73
2022/07/26 01:51:39;;;;;;;5.63;2.05;;;;;;;20.35;95.57;100886.34;5061975;28;20049;-72
2022/07/26 01:54:06;;;;;;;12.32;1.88;;;;;;;20.45;95.36;100894.81;5058787;28;20127;-74
2022/07/26 01:56:33;;;;;;;11.18;2.60;;;;;;;20.41;95.27;100885.75;5051848;28;20125;-72
2022/07/26 01:59:00;;;;;;;10.82;2.60;;;;;;;20.38;95.74;100890.25;5057071;28;20126;-73
2022/07/26 02:01:27;;;;;;;5.28;1.52;;;;;;;20.37;96.03;100894.31;5060166;28;20114;-73
2022/07/26 02:04:57;;;;;;;7.97;3.13;;;;;;;20.38;96.61;100886.66;5064512;28;20114;-71
2022/07/26 02:06:55;;;;;;;9.20;2.78;;;;;;;20.32;96.97;100895.69;5053512;28;20088;-73
2022/07/26 02:09:21;;;;;;;1.70;1.15;;;;;;;20.32;97.24;100889.28;5050553;28;20143;-72
2022/07/26 02:11:48;;;;;;;4.97;1.48;;;;;;;20.35;97.20;100894.75;5056489;28;20136;-73
2022/07/26 02:14:14;;;;;;;9.45;3.05;;;;;;;20.49;96.33;100904.69;5054784;28;20040;-72
2022/07/26 02:16:58;;;;;;;4.13;1.63;;;;;;;20.29;97.79;100902.22;5054078;28;20053;-74
2022/07/26 02:19:27;;;;;;;11.85;2.75;;;;;;;20.45;97.25;100903.25;5059942;28;20444;-72
2022/07/26 02:21:54;;;;;;;5.57;1.90;;;;;;;20.33;98.00;100918.97;5051624;28;20115;-72
2022/07/26 02:24:21;;;;;;;8.88;3.63;;;;;;;20.39;97.86;100898.22;5062644;28;20048;-73
2022/07/26 02:26:47;;;;;;;8.73;2.80;;;;;;;20.36;98.07;100899.13;5060559;28;20549;-72
2022/07/26 02:29:14;;;;;;;8.73;2.13;;;;;;;20.30;98.51;100905.81;5061886;28;20053;-73
2022/07/26 02:31:41;;;;;;;7.22;2.08;;;;;;;20.32;98.80;100900.53;5056512;28;20499;-73
2022/07/26 02:34:14;;;;;;;11.73;2.42;;;;;;;20.33;98.60;100893.66;5059293;28;20115;-72
2022/07/26 02:36:40;;;;;;;7.35;2.03;;;;;;;20.23;100.00;100898.47;5064708;28;20049;-73
2022/07/26 02:39:07;;;;;;;14.05;3.85;;;;;;;20.35;98.92;100903.19;5064634;28;20105;-73
2022/07/26 02:41:33;;;;;;;10.82;3.53;;;;;;;20.38;99.15;100899.47;5055748;28;20079;-72
2022/07/26 02:44:00;;;;;;;8.57;2.90;;;;;;;20.29;99.21;100896.59;5068903;28;20044;-73
2022/07/26 02:46:26;;;;;;;11.65;3.03;;;;;;;20.31;99.68;100899.75;5062765;28;20084;-72
2022/07/26 02:48:53;;;;;;;10.75;3.00;;;;;;;20.32;99.58;100901.31;5062624;28;20071;-74
2022/07/26 02:51:20;;;;;;;14.50;2.90;;;;;;;20.29;99.99;100904.25;5063066;28;20052;-73
2022/07/26 02:53:46;;;;;;;11.02;3.00;;;;;;;20.33;100.00;100902.88;5055229;28;20045;-73
2022/07/26 02:56:13;;;;;;;11.25;3.00;;;;;;;20.35;99.80;100908.81;5059521;28;20049;-73
2022/07/26 02:58:39;;;;;;;12.38;2.42;;;;;;;20.28;100.00;100913.91;5064874;28;20048;-73
2022/07/26 03:01:06;;;;;;;17.33;3.70;;;;;;;20.38;99.78;100919.16;5055329;28;20048;-73
2022/07/26 03:03:33;;;;;;;13.38;3.60;;;;;;;20.36;100.00;100912.41;5064991;28;20043;-72
2022/07/26 03:06:03;;;;;;;3.78;1.80;;;;;;;20.16;100.00;100926.81;5060904;28;20062;-72
2022/07/26 03:08:30;;;;;;;4.95;1.70;;;;;;;20.20;100.00;100913.41;5054160;28;20068;-73
2022/07/26 03:10:57;;;;;;;8.73;3.13;;;;;;;20.24;100.00;100914.06;5067507;28;20055;-75
2022/07/26 03:13:23;;;;;;;7.80;1.90;;;;;;;20.22;100.00;100922.16;5065643;28;20052;-72
2022/07/26 03:15:50;;;;;;;11.18;3.35;;;;;;;20.18;100.00;100924.31;5053246;28;20531;-72
2022/07/26 03:18:16;;;;;;;8.52;2.90;;;;;;;20.14;100.00;100920.88;5063799;28;20143;-73
2022/07/26 03:20:43;;;;;;;14.27;3.45;;;;;;;20.31;100.00;100922.22;5061297;28;20140;-72
2022/07/26 03:23:09;;;;;;;12.63;2.70;;;;;;;20.17;100.00;100922.75;5060848;28;20048;-73
2022/07/26 03:25:37;;;;;;;10.30;2.83;;;;;;;20.14;100.00;100926.47;5057847;28;20144;-73
2022/07/26 03:28:04;;;;;;;14.38;2.47;;;;;;;20.09;100.00;100923.44;5056386;28;20072;-72
2022/07/26 03:30:30;;;;;;;11.48;2.50;;;;;;;20.13;100.00;100924.91;5061569;28;20079;-75
2022/07/26 03:32:57;;;;;;;8.88;1.75;;;;;;;20.05;100.00;100923.56;5062595;28;20049;-73
2022/07/26 03:35:24;;;;;;;2.63;1.15;;;;;;;19.91;100.00;100935.31;5057183;28;20128;-73
2022/07/26 03:37:51;;;;;;;15.35;3.55;;;;;;;19.95;100.00;100927.53;5055941;28;20052;-74
2022/07/26 03:40:18;;;;;;;8.25;1.85;;;;;;;19.93;100.00;100938.47;5063506;28;20193;-73
2022/07/26 03:42:46;;;;;;;8.75;2.53;;;;;;;19.91;100.00;100940.94;5052072;28;20467;-74
2022/07/26 03:45:14;;;;;;;8.95;1.88;;;;;;;19.85;100.00;100947.59;5053300;28;20140;-73
2022/07/26 03:47:42;;;;;;;14.63;2.42;;;;;;;19.79;100.00;100946.59;5058809;28;20057;-72
2022/07/26 03:50:09;;;;;;;15.73;5.13;;;;;;;19.89;100.00;100951.84;5059941;28;20044;-74
2022/07/26 03:52:36;;;;;;;14.00;3.55;;;;;;;19.86;100.00;100957.59;5058388;28;20085;-72
2022/07/26 03:56:27;;;;;;;6.95;1.75;;;;;;;19.65;100.00;100961.91;5065658;28;20520;-74
2022/07/26 03:57:50;;;;;;;12.15;3.80;;;;;;;19.58;100.00;100961.38;5051388;28;20060;-72
2022/07/26 04:00:16;;;;;;;4.53;1.75;;;;;;;19.40;100.00;100959.16;5056728;28;20080;-73
2022/07/26 04:02:43;;;;;;;14.77;4.60;;;;;;;19.45;100.00;100969.84;5049329;28;20104;-73
2022/07/26 04:05:10;;;;;;;17.92;5.07;;;;;;;19.44;100.00;100973.84;5063945;28;20099;-72
2022/07/26 04:07:44;;;;;;;15.60;4.93;;;;;;;19.40;100.00;100964.78;5056788;28;20068;-73
2022/07/26 04:10:19;;;;;;;12.65;4.15;;;;;;;19.35;100.00;100973.78;5060558;28;20063;-72
2022/07/26 04:12:45;;;;;;;17.67;5.88;;;;;;;19.23;100.00;100973.72;5054739;28;20049;-72
2022/07/26 04:15:12;;;;;;;15.68;5.07;;;;;;;19.23;100.00;100982.16;5063149;28;20432;-73
2022/07/26 04:17:39;;;;;;;5.07;1.95;;;;;;;18.88;100.00;100981.28;5059509;28;20045;-72
2022/07/26 04:20:09;;;;;;;10.25;3.35;;;;;;;18.66;100.00;100985.16;5064865;28;20071;-75
2022/07/26 04:22:37;;;;;;;20.60;4.85;;;;;;;18.71;100.00;100985.41;5052501;28;20512;-72
2022/07/26 04:25:05;;;;;;;14.00;3.90;;;;;;;18.63;100.00;100986.06;5058384;28;20131;-72
2022/07/26 04:27:32;;;;;;;15.20;4.15;;;;;;;18.51;100.00;100987.59;5050604;28;20077;-72
2022/07/26 04:29:59;;;;;;;14.23;3.72;;;;;;;18.49;100.00;100992.84;5052639;28;20045;-72
2022/07/26 04:32:25;;;;;;;20.13;5.03;;;;;;;18.51;100.00;100995.22;5063455;28;20505;-72
2022/07/26 04:34:52;;;;;;;13.02;5.00;;;;;;;18.46;100.00;100990.16;5048583;28;20126;-73
2022/07/26 04:37:19;;;;;;;22.50;5.05;;;;;;;18.36;100.00;100994.81;5054844;28;20052;-72
2022/07/26 04:39:45;;;;;;;21.15;5.75;;;;;;;18.34;100.00;100991.66;5056053;28;20547;-73
2022/07/26 04:42:18;;;;;;;19.70;5.10;;;;;;;18.36;100.00;100983.63;5055854;28;20075;-72
2022/07/26 04:44:44;;;;;;;18.58;5.13;;;;;;;18.30;100.00;100988.19;5064641;28;20074;-75
2022/07/26 04:47:11;;;;;;;20.27;6.93;;;;;;;18.35;100.00;100987.63;5053393;28;20076;-72
2022/07/26 04:49:39;;;;;;;21.17;7.00;;;;;;;18.39;100.00;100982.72;5057230;28;20053;-72
2022/07/26 04:52:06;;;;;;;19.60;6.78;;;;;;;18.46;100.00;100984.56;5055571;28;20045;-71
2022/07/26 04:54:32;;;;;;;21.20;6.88;;;;;;;18.49;100.00;100990.03;5055696;28;20080;-72
2022/07/26 04:56:59;;;;;;;20.70;6.32;;;;;;;18.48;100.00;100990.50;5060095;28;20064;-73
2022/07/26 04:59:25;;;;;;;18.50;5.97;;;;;;;18.51;100.00;100996.00;5052882;28;20080;-72
2022/07/26 05:01:52;;;;;;;21.25;6.22;;;;;;;18.45;100.00;100996.97;5055902;28;20052;-71
2022/07/26 05:04:18;;;;;;;19.15;6.13;;;;;;;18.44;100.00;101001.03;5057533;28;20056;-73
2022/07/26 05:06:45;;;;;;;23.13;7.47;;;;;;;18.48;100.00;101004.50;5058745;28;20420;-73
2022/07/26 05:09:11;;;;;;;20.13;6.20;;;;;;;18.49;100.00;101009.66;5056287;28;20056;-73
2022/07/26 05:11:38;;;;;;;22.00;7.15;;;;;;;18.57;100.00;101007.44;5054750;28;20394;-72
2022/07/26 05:14:04;;;;;;;22.02;5.65;;;;;;;18.51;100.00;101007.22;5053611;28;20600;-71
2022/07/26 05:16:31;;;;;;;18.42;7.15;;;;;;;18.62;100.00;101013.28;5061802;28;20048;-74
2022/07/26 05:18:58;;;;;;;15.90;5.63;;;;;;;18.58;100.00;101012.59;5050674;28;20555;-72
2022/07/26 05:21:26;;;;;;;27.30;7.90;;;;;;;18.60;100.00;101010.16;5064921;28;20102;-71
2022/07/26 05:23:54;;;;;;;22.45;6.07;;;;;;;18.58;100.00;101006.22;5057992;28;20072;-71
2022/07/26 05:26:21;;;;;;;17.23;4.85;;;;;;;18.62;100.00;101006.88;5051355;28;20147;-74
2022/07/26 05:28:47;;;;;;;13.82;4.65;;;;;;;18.58;100.00;101009.00;5059146;28;20404;-72
2022/07/26 05:31:14;;;;;;;13.25;5.13;;;;;;;18.57;100.00;101011.06;5058161;28;20056;-74
2022/07/26 05:33:40;;;;;;;17.73;6.28;;;;;;;18.72;100.00;101011.38;5062413;28;20048;-72
2022/07/26 05:36:08;;;;;;;18.38;4.85;;;;;;;18.64;100.00;101005.22;5062308;28;20051;-72
2022/07/26 05:38:34;;;;;;;18.52;5.93;;;;;;;18.66;100.00;101004.78;5057449;28;20128;-71
2022/07/26 05:41:01;;;;;;;17.88;6.13;;;;;;;18.71;100.00;100999.41;5067278;28;20123;-72
2022/07/26 05:43:28;;;;;;;20.25;7.10;;;;;;;18.80;100.00;100999.53;5062419;28;20481;-72
2022/07/26 05:46:07;;;;;;;21.95;6.63;;;;;;;18.81;100.00;101001.13;5055915;28;20048;-73
2022/07/26 05:48:35;;;;;;;21.23;6.60;;;;;;;18.83;100.00;101006.28;5053900;28;20057;-72
2022/07/26 05:51:02;;;;;;;23.50;6.93;;;;;;;18.94;100.00;101015.13;5060913;28;20049;-74
2022/07/26 05:53:28;;;;;;;16.88;6.55;;;;;;;18.98;100.00;101015.81;5060968;28;20109;-73
2022/07/26 05:55:55;;;;;;;24.52;7.05;;;;;;;19.05;100.00;101002.38;5067992;28;20049;-73
2022/07/26 05:58:21;;;;;;;24.42;6.20;;;;;;;19.12;100.00;101001.34;5057169;28;20497;-73
2022/07/26 06:00:48;;;;;;;17.15;6.38;;;;;;;19.12;100.00;101006.94;5064258;28;20132;-72
2022/07/26 06:03:24;;;;;;;17.30;5.18;;;;;;;19.08;100.00;101017.50;5052315;28;20136;-73
2022/07/26 06:05:54;;;;;;;22.08;6.82;;;;;;;19.22;100.00;101006.63;5066623;28;20068;-75
2022/07/26 06:08:21;;;;;;;23.58;7.63;;;;;;;19.19;100.00;101015.16;5062850;28;20114;-71
2022/07/26 06:10:48;;;;;;;15.60;5.07;;;;;;;19.18;100.00;101017.19;5056541;28;20144;-76
2022/07/26 06:13:15;;;;;;;19.35;5.95;;;;;;;19.23;100.00;101013.00;5070930;28;20139;-76
2022/07/26 06:15:44;;;;;;;15.00;3.80;;;;;;;19.22;100.00;101022.66;5070128;28;20084;-77
2022/07/26 06:18:10;;;;;;;20.65;6.45;;;;;;;19.20;100.00;101028.72;5068861;28;20053;-72
2022/07/26 06:20:39;;;;;;;18.40;5.60;;;;;;;19.25;100.00;101027.38;5070587;28;20131;-72
2022/07/26 06:23:05;;;;;;;14.38;6.18;;;;;;;19.32;100.00;101021.56;5057813;28;20049;-75
2022/07/26 06:25:33;;;;;;;21.50;6.70;;;;;;;19.39;100.00;101027.75;5068838;28;20105;-72
2022/07/26 06:28:04;;;;;;;8.88;3.00;;;;;;;19.32;100.00;101032.78;5070430;28;20392;-74
2022/07/26 06:30:30;;;;;;;4.65;2.35;;;;;;;19.30;100.00;101024.81;5070415;28;20086;-73
2022/07/26 06:32:57;;;;;;;18.33;6.68;;;;;;;19.31;100.00;101032.00;5068953;28;20105;-73
2022/07/26 06:35:24;;;;;;;27.77;7.32;;;;;;;19.41;100.00;101030.88;5066039;28;20136;-78
2022/07/26 06:37:50;;;;;;;23.50;8.88;;;;;;;19.58;100.00;101037.16;5058796;28;20131;-71
2022/07/26 06:40:17;;;;;;;19.33;5.88;;;;;;;19.63;100.00;101040.19;5066984;28;20068;-75
2022/07/26 06:42:43;;;;;;;21.83;6.85;;;;;;;19.72;100.00;101034.69;5050876;28;20720;-74
2022/07/26 06:45:10;;;;;;;21.38;7.28;;;;;;;19.88;100.00;101040.13;5059201;28;20136;-74
2022/07/26 06:47:36;;;;;;;25.15;9.07;;;;;;;19.82;100.00;101038.34;5054551;28;20390;-75
2022/07/26 06:50:04;;;;;;;24.73;9.98;;;;;;;19.93;100.00;101038.78;5056217;28;20143;-74
2022/07/26 06:52:31;;;;;;;17.58;5.82;;;;;;;19.76;100.00;101046.56;5050749;28;20057;-74
2022/07/26 06:54:59;;;;;;;25.65;9.48;;;;;;;19.87;100.00;101046.19;5050998;28;20045;-75
2022/07/26 06:57:26;;;;;;;17.67;7.35;;;;;;;19.89;100.00;101054.97;5059141;28;20106;-73
2022/07/26 06:59:52;;;;;;;20.48;8.18;;;;;;;19.96;100.00;101044.28;5059800;28;20135;-76
2022/07/26 07:02:19;;;;;;;20.35;8.30;;;;;;;20.10;100.00;101048.59;5056321;28;20151;-75
2022/07/26 07:04:46;;;;;;;23.15;9.50;;;;;;;20.04;100.00;101039.19;5056808;28;20051;-75
2022/07/26 07:07:13;;;;;;;26.85;8.68;;;;;;;20.07;100.00;101050.31;5063329;28;20052;-76
2022/07/26 07:09:40;;;;;;;29.10;11.00;;;;;;;20.29;100.00;101056.00;5068072;28;20054;-74
2022/07/26 07:12:07;;;;;;;15.77;6.03;;;;;;;20.32;100.00;101060.72;5061959;28;20143;-73
2022/07/26 07:14:36;;;;;;;17.58;6.05;;;;;;;20.18;100.00;101066.81;5068059;28;20059;-73
2022/07/26 07:17:04;;;;;;;15.25;7.28;;;;;;;20.34;100.00;101056.19;5051451;28;20156;-74
2022/07/26 07:19:39;;;;;;;22.88;11.57;;;;;;;20.41;100.00;101063.56;5059094;28;20091;-74
2022/07/26 07:22:10;;;;;;;24.85;14.00;;;;;;;20.66;100.00;101059.88;5060287;28;20474;-74
2022/07/26 07:24:37;;;;;;;25.83;13.32;;;;;;;20.81;100.00;101066.53;5061173;28;20044;-74
2022/07/26 07:27:04;;;;;;;24.77;12.35;;;;;;;20.78;100.00;101073.09;5056568;28;20084;-74
2022/07/26 07:29:32;;;;;;;26.15;12.32;;;;;;;20.86;100.00;101072.38;5050388;28;20053;-76
2022/07/26 07:31:59;;;;;;;25.95;12.48;;;;;;;20.81;100.00;101063.72;5058059;28;20102;-74
2022/07/26 07:34:28;;;;;;;7.68;3.78;;;;;;;20.74;100.00;101075.22;5056760;28;20087;-77
2022/07/26 07:36:56;;;;;;;23.92;10.55;;;;;;;20.89;100.00;101071.41;5064914;28;20048;-75
2022/07/26 07:39:23;;;;;;;23.70;11.05;;;;;;;20.90;100.00;101061.75;5065515;28;20052;-75
2022/07/26 07:41:59;;;;;;;21.52;10.23;;;;;;;20.94;100.00;101072.88;5069000;28;20052;-75
2022/07/26 07:44:26;;;;;;;19.80;9.27;;;;;;;21.21;100.00;101075.84;5058503;28;20611;-74
2022/07/26 07:46:53;;;;;;;17.35;8.40;;;;;;;21.24;100.00;101077.75;5049743;28;20048;-75
2022/07/26 07:49:21;;;;;;;15.63;6.75;;;;;;;21.25;100.00;101084.94;5057500;28;20520;-71
2022/07/26 07:51:47;;;;;;;17.80;7.55;;;;;;;21.32;100.00;101081.84;5065705;28;20520;-71
2022/07/26 07:54:14;;;;;;;9.38;5.25;;;;;;;21.42;100.00;101084.25;5055646;28;20148;-74
2022/07/26 07:56:42;;;;;;;18.25;8.13;;;;;;;21.67;100.00;101083.25;5057096;28;20059;-73
2022/07/26 07:59:09;;;;;;;7.78;3.85;;;;;;;21.57;100.00;101076.78;5057091;28;20045;-73
2022/07/26 08:01:36;;;;;;;11.77;5.05;;;;;;;21.35;100.00;101092.19;5056823;28;20045;-72
2022/07/26 08:04:06;;;;;;;29.27;9.35;;;;;;;21.65;100.00;101091.38;5057955;28;20394;-74
2022/07/26 08:06:33;;;;;;;15.20;5.43;;;;;;;21.77;100.00;101088.47;5059565;28;20463;-72
2022/07/26 08:09:00;;;;;;;5.72;3.30;;;;;;;21.75;100.00;101093.00;5064121;28;20045;-68
2022/07/26 08:11:29;;;;;;;18.77;6.78;;;;;;;21.92;100.00;101088.66;5066993;28;20052;-71
2022/07/26 08:13:55;;;;;;;18.42;7.45;;;;;;;22.06;100.00;101079.63;5059241;28;20466;-73
2022/07/26 08:16:23;;;;;;;17.65;6.40;;;;;;;22.16;100.00;101084.00;5052834;28;20579;-71
2022/07/26 08:18:50;;;;;;;14.90;5.32;;;;;;;22.14;100.00;101081.66;5058854;28;20136;-72
2022/07/26 08:21:24;;;;;;;16.13;4.95;;;;;;;22.30;100.00;101087.00;5060593;28;20059;-70
2022/07/26 08:23:55;;;;;;;16.98;5.57;;;;;;;22.40;100.00;101097.03;5048613;28;20551;-70
2022/07/26 08:26:22;;;;;;;4.15;2.33;;;;;;;22.47;100.00;101076.19;5061414;28;20114;-73
2022/07/26 08:28:49;;;;;;;6.97;2.72;;;;;;;22.44;100.00;101088.41;5066548;28;20438;-72
2022/07/26 08:31:26;;;;;;;14.73;4.75;;;;;;;22.62;100.00;101077.94;5059978;28;20162;-72
2022/07/26 08:33:53;;;;;;;17.75;5.20;;;;;;;22.56;100.00;101085.50;5056332;28;20059;-71
2022/07/26 08:36:20;;;;;;;11.75;6.07;;;;;;;22.65;100.00;101090.34;5049456;28;20056;-76
2022/07/26 08:38:47;;;;;;;9.13;3.90;;;;;;;22.43;98.44;101095.31;5057441;28;20436;-76
2022/07/26 08:41:15;;;;;;;3.95;2.13;;;;;;;22.53;97.03;101091.28;5049375;28;20076;-75
2022/07/26 08:43:42;;;;;;;10.75;4.35;;;;;;;22.59;99.79;101083.75;5055098;28;20079;-71
2022/07/26 08:46:21;;;;;;;5.70;1.92;;;;;;;22.63;96.11;101088.00;5054729;28;20469;-70
2022/07/26 08:48:52;;;;;;;11.10;4.07;;;;;;;22.77;96.12;101084.53;5056120;28;20060;-71
2022/07/26 08:51:21;;;;;;;12.32;1.75;;;;;;;22.64;91.60;101095.19;5061897;28;20052;-70
2022/07/26 08:53:52;;;;;;;11.45;3.28;;;;;;;22.79;91.49;101086.88;5051186;28;20053;-71
2022/07/26 08:56:18;;;;;;;12.80;3.90;;;;;;;22.98;89.66;101094.03;5053639;28;20080;-71
2022/07/26 08:58:45;;;;;;;4.75;2.17;;;;;;;22.67;88.91;101096.28;5053793;28;20072;-71
2022/07/26 09:01:11;;;;;;;8.73;2.60;;;;;;;22.65;86.66;101099.56;5049485;28;20099;-72
2022/07/26 09:03:43;;;;;;;12.25;3.75;;;;;;;23.11;87.69;101091.06;5058740;28;20063;-73
2022/07/26 09:06:20;;;;;;;4.32;1.70;;;;;;;22.88;82.63;101095.31;5051612;28;20040;-73
2022/07/26 09:08:51;;;;;;;5.53;2.17;;;;;;;23.05;83.70;101098.59;5042093;28;20139;-75
2022/07/26 09:11:31;;;;;;;11.20;3.50;;;;;;;23.32;81.13;101102.13;5044914;28;20059;-74
2022/07/26 09:14:03;;;;;;;9.55;2.90;;;;;;;23.25;82.74;101113.75;5047689;28;20160;-74
2022/07/26 09:16:31;;;;;;;5.60;1.77;;;;;;;22.88;82.86;101111.47;5039989;28;20135;-74
2022/07/26 09:19:17;;;;;;;8.13;2.50;;;;;;;22.69;83.97;101105.06;5035560;28;20573;-74
2022/07/26 09:21:45;;;;;;;10.82;2.90;;;;;;;22.77;85.37;101112.75;5028675;28;20063;-73
2022/07/26 09:24:27;;;;;;;10.52;3.42;;;;;;;22.82;85.88;101110.53;5040785;28;20050;-76
2022/07/26 09:26:59;;;;;;;8.85;3.17;;;;;;;23.12;84.33;101116.00;5049418;28;20045;-72
2022/07/26 09:29:27;;;;;;;7.68;2.95;;;;;;;23.40;84.53;101109.03;5036495;28;20062;-74
2022/07/26 09:32:15;;;;;;;11.30;4.05;;;;;;;23.65;79.64;101107.84;5042047;28;20051;-74
2022/07/26 09:34:45;;;;;;;6.90;2.90;;;;;;;23.37;77.98;101114.81;5041124;28;20472;-73
2022/07/26 09:37:36;;;;;;;11.95;4.13;;;;;;;23.52;78.87;101116.50;5034781;28;20049;-74
2022/07/26 09:40:07;;;;;;;8.02;3.13;;;;;;;23.64;77.86;101111.91;5040117;28;20048;-74
2022/07/26 09:42:34;;;;;;;9.55;2.45;;;;;;;23.78;77.36;101109.16;5034929;28;20052;-73
2022/07/26 09:45:01;;;;;;;12.63;3.15;;;;;;;23.70;77.68;101115.66;5041969;28;20059;-76
2022/07/26 09:47:35;;;;;;;9.73;4.72;;;;;;;24.17;72.86;101110.84;5036963;28;20048;-75
2022/07/26 09:50:14;;;;;;;4.93;2.15;;;;;;;24.22;72.80;101118.69;5033600;28;20053;-76
2022/07/26 09:53:07;;;;;;;8.48;4.07;;;;;;;24.17;73.67;101119.31;5035217;28;20927;-73
2022/07/26 09:55:56;;;;;;;3.47;2.05;;;;;;;23.84;73.81;101121.41;5036434;28;20142;-72
2022/07/26 09:58:23;;;;;;;6.38;4.00;;;;;;;23.98;75.24;101120.72;5035485;28;20870;-75
2022/07/26 10:00:50;;;;;;;10.73;4.65;;;;;;;24.17;75.30;101121.38;5043811;28;20044;-74
2022/07/26 10:03:17;;;;;;;10.07;3.83;;;;;;;24.30;73.58;101125.53;5037746;28;20949;-74
2022/07/26 10:05:43;;;;;;;7.47;2.70;;;;;;;24.32;75.03;101134.31;5043674;28;20045;-74
2022/07/26 10:08:11;;;;;;;7.90;2.40;;;;;;;24.32;76.75;101145.63;5038404;28;20728;-76
2022/07/26 10:10:45;;;;;;;5.93;2.05;;;;;;;24.19;77.70;101159.22;5038255;28;20044;-76
2022/07/26 10:13:12;;;;;;;4.18;1.85;;;;;;;24.05;79.08;101171.25;5035691;28;20048;-75
2022/07/26 10:15:44;;;;;;;6.63;1.67;;;;;;;23.85;80.91;101179.47;5046199;28;20054;-72
2022/07/26 10:18:37;;;;;;;5.80;1.80;;;;;;;23.49;87.79;101188.06;5042436;28;20250;-72
2022/07/26 10:21:29;;;;;;;7.32;2.17;;;;;;;23.25;88.94;101192.81;5032581;28;20051;-72
2022/07/26 10:24:00;;;;;;;5.75;1.77;;;;;;;23.10;89.49;101200.34;5046166;28;20159;-71
2022/07/26 10:26:30;;;;;;;5.00;1.98;;;;;;;22.96;93.27;101200.97;5045808;28;21052;-72
2022/07/26 10:29:17;;;;;;;4.18;1.88;;;;;;;22.73;98.04;101207.25;5048978;28;20234;-73
2022/07/26 10:32:06;;;;;;;4.95;2.10;;;;;;;22.67;99.93;101206.28;5042180;28;20144;-74
2022/07/26 10:34:36;;;;;;;5.60;2.20;;;;;;;22.59;100.00;101207.84;5044864;28;20056;-76
2022/07/26 10:37:06;;;;;;;9.13;2.28;;;;;;;22.50;100.00;101202.97;5040892;28;20425;-72
2022/07/26 10:39:33;;;;;;;2.70;1.70;;;;;;;22.43;100.00;101210.91;5045932;28;20094;-72
2022/07/26 10:42:08;;;;;;;6.45;2.83;;;;;;;22.38;100.00;101208.72;5041740;28;20233;-74
2022/07/26 10:44:38;;;;;;;8.15;2.28;;;;;;;22.33;100.00;101214.97;5034641;28;20100;-73
2022/07/26 10:47:07;;;;;;;6.68;2.65;;;;;;;22.28;100.00;101209.94;5038846;28;20226;-72
2022/07/26 10:49:37;;;;;;;6.50;2.03;;;;;;;22.28;100.00;101215.59;5037622;28;20058;-72
2022/07/26 10:52:18;;;;;;;4.57;1.88;;;;;;;22.26;100.00;101223.72;5043692;28;20063;-71
2022/07/26 10:55:03;;;;;;;5.68;2.10;;;;;;;22.26;100.00;101226.53;5043315;28;20059;-75
2022/07/26 10:57:33;;;;;;;4.55;2.05;;;;;;;22.30;100.00;101230.00;5039398;28;20048;-73
2022/07/26 11:00:00;;;;;;;7.15;2.10;;;;;;;22.25;100.00;101233.44;5034586;28;20049;-73
2022/07/26 11:02:31;;;;;;;11.10;2.42;;;;;;;22.23;100.00;101236.72;5039937;28;20057;-74
2022/07/26 11:05:01;;;;;;;8.93;2.60;;;;;;;22.21;100.00;101232.78;5039464;28;20142;-74
2022/07/26 11:07:28;;;;;;;3.78;2.20;;;;;;;22.20;100.00;101237.63;5045370;28;20513;-73
2022/07/26 11:09:59;;;;;;;5.05;2.33;;;;;;;22.10;100.00;101232.41;5038946;28;20052;-73
2022/07/26 11:12:26;;;;;;;5.80;2.03;;;;;;;22.18;100.00;101228.84;5035029;28;20063;-74
2022/07/26 11:14:53;;;;;;;8.07;1.65;;;;;;;22.23;100.00;101227.47;5043294;28;20052;-72
2022/07/26 11:17:28;;;;;;;4.78;1.80;;;;;;;22.39;100.00;101244.91;5036728;28;20071;-75
2022/07/26 11:19:55;;;;;;;7.07;1.92;;;;;;;22.48;100.00;101244.16;5040733;28;20054;-72
2022/07/26 11:22:30;;;;;;;5.45;2.20;;;;;;;22.55;100.00;101255.16;5040297;28;20699;-73
2022/07/26 11:24:57;;;;;;;5.00;1.63;;;;;;;22.38;100.00;101260.25;5033701;28;20588;-73